sensor_id;sensor_type;location;lat;lon;timestamp;P1;durP1;ratioP1;P2;durP2;ratioP2
69754;SDS011;57023;52.218;5.158;2023-02-20T00:01:26;13.70;;;6.68;;
69754;SDS011;57023;52.218;5.158;2023-02-20T00:03:52;13.20;;;6.72;;
69754;SDS011;57023;52.218;5.158;2023-02-20T00:06:17;13.00;;;7.38;;
69754;SDS011;57023;52.218;5.158;2023-02-20T00:08:43;16.05;;;8.38;;
69754;SDS011;57023;52.218;5.158;2023-02-20T00:11:08;13.13;;;6.30;;
69754;SDS011;57023;52.218;5.158;2023-02-20T00:13:33;14.65;;;8.23;;
69754;SDS011;57023;52.218;5.158;2023-02-20T00:15:59;15.30;;;8.05;;
69754;SDS011;57023;52.218;5.158;2023-02-20T00:18:24;13.55;;;7.05;;
69754;SDS011;57023;52.218;5.158;2023-02-20T00:20:50;14.63;;;7.85;;
69754;SDS011;57023;52.218;5.158;2023-02-20T00:23:15;19.02;;;7.55;;
69754;SDS011;57023;52.218;5.158;2023-02-20T00:25:40;12.95;;;7.50;;
69754;SDS011;57023;52.218;5.158;2023-02-20T00:28:06;16.65;;;8.40;;
69754;SDS011;57023;52.218;5.158;2023-02-20T00:30:31;15.63;;;8.70;;
69754;SDS011;57023;52.218;5.158;2023-02-20T00:32:56;14.40;;;7.47;;
69754;SDS011;57023;52.218;5.158;2023-02-20T00:35:23;17.10;;;8.73;;
69754;SDS011;57023;52.218;5.158;2023-02-20T00:37:49;13.82;;;7.90;;
69754;SDS011;57023;52.218;5.158;2023-02-20T00:40:15;12.63;;;6.90;;
69754;SDS011;57023;52.218;5.158;2023-02-20T00:42:41;16.48;;;9.10;;
69754;SDS011;57023;52.218;5.158;2023-02-20T00:45:07;15.70;;;9.02;;
69754;SDS011;57023;52.218;5.158;2023-02-20T00:47:32;17.08;;;7.60;;
69754;SDS011;57023;52.218;5.158;2023-02-20T00:49:58;19.55;;;8.25;;
69754;SDS011;57023;52.218;5.158;2023-02-20T00:52:23;14.98;;;8.18;;
69754;SDS011;57023;52.218;5.158;2023-02-20T00:54:49;15.57;;;8.38;;
69754;SDS011;57023;52.218;5.158;2023-02-20T00:57:14;18.48;;;9.55;;
69754;SDS011;57023;52.218;5.158;2023-02-20T00:59:40;16.10;;;7.45;;
69754;SDS011;57023;52.218;5.158;2023-02-20T01:02:05;16.95;;;9.23;;
69754;SDS011;57023;52.218;5.158;2023-02-20T01:04:30;18.73;;;9.50;;
69754;SDS011;57023;52.218;5.158;2023-02-20T01:06:56;13.30;;;7.55;;
69754;SDS011;57023;52.218;5.158;2023-02-20T01:09:21;15.13;;;8.90;;
69754;SDS011;57023;52.218;5.158;2023-02-20T01:11:46;13.38;;;8.65;;
69754;SDS011;57023;52.218;5.158;2023-02-20T01:14:12;19.25;;;9.40;;
69754;SDS011;57023;52.218;5.158;2023-02-20T01:16:47;17.48;;;9.13;;
69754;SDS011;57023;52.218;5.158;2023-02-20T01:21:40;18.25;;;9.32;;
69754;SDS011;57023;52.218;5.158;2023-02-20T01:24:05;15.07;;;8.73;;
69754;SDS011;57023;52.218;5.158;2023-02-20T01:26:31;16.33;;;9.60;;
69754;SDS011;57023;52.218;5.158;2023-02-20T01:28:56;18.90;;;9.55;;
69754;SDS011;57023;52.218;5.158;2023-02-20T01:31:21;14.77;;;9.65;;
69754;SDS011;57023;52.218;5.158;2023-02-20T01:33:47;21.40;;;10.85;;
69754;SDS011;57023;52.218;5.158;2023-02-20T01:36:12;19.67;;;11.40;;
69754;SDS011;57023;52.218;5.158;2023-02-20T01:38:41;17.88;;;10.32;;
69754;SDS011;57023;52.218;5.158;2023-02-20T01:41:07;21.85;;;10.07;;
69754;SDS011;57023;52.218;5.158;2023-02-20T01:43:33;18.58;;;8.38;;
69754;SDS011;57023;52.218;5.158;2023-02-20T01:48:53;15.27;;;9.50;;
69754;SDS011;57023;52.218;5.158;2023-02-20T01:51:24;18.35;;;9.75;;
69754;SDS011;57023;52.218;5.158;2023-02-20T01:53:50;18.67;;;10.40;;
69754;SDS011;57023;52.218;5.158;2023-02-20T01:56:16;19.60;;;10.30;;
69754;SDS011;57023;52.218;5.158;2023-02-20T01:58:42;21.02;;;11.85;;
69754;SDS011;57023;52.218;5.158;2023-02-20T02:01:09;21.38;;;10.80;;
69754;SDS011;57023;52.218;5.158;2023-02-20T02:03:36;23.02;;;11.07;;
69754;SDS011;57023;52.218;5.158;2023-02-20T02:06:05;25.40;;;12.10;;
69754;SDS011;57023;52.218;5.158;2023-02-20T02:08:31;19.35;;;11.00;;
69754;SDS011;57023;52.218;5.158;2023-02-20T02:11:00;16.35;;;10.32;;
69754;SDS011;57023;52.218;5.158;2023-02-20T02:13:42;22.23;;;11.70;;
69754;SDS011;57023;52.218;5.158;2023-02-20T02:41:19;32.35;;;16.92;;
69754;SDS011;57023;52.218;5.158;2023-02-20T02:47:10;27.40;;;13.18;;
69754;SDS011;57023;52.218;5.158;2023-02-20T02:49:44;36.03;;;17.85;;
69754;SDS011;57023;52.218;5.158;2023-02-20T02:52:13;39.50;;;20.25;;
69754;SDS011;57023;52.218;5.158;2023-02-20T02:54:59;32.10;;;16.25;;
69754;SDS011;57023;52.218;5.158;2023-02-20T02:57:25;36.03;;;17.38;;
69754;SDS011;57023;52.218;5.158;2023-02-20T02:59:53;46.38;;;22.30;;
69754;SDS011;57023;52.218;5.158;2023-02-20T03:02:22;32.50;;;16.80;;
69754;SDS011;57023;52.218;5.158;2023-02-20T03:07:15;30.85;;;16.70;;
69754;SDS011;57023;52.218;5.158;2023-02-20T03:09:42;30.48;;;15.13;;
69754;SDS011;57023;52.218;5.158;2023-02-20T03:12:11;37.42;;;18.08;;
69754;SDS011;57023;52.218;5.158;2023-02-20T03:20:24;42.38;;;19.65;;
69754;SDS011;57023;52.218;5.158;2023-02-20T03:22:54;41.58;;;20.17;;
69754;SDS011;57023;52.218;5.158;2023-02-20T03:25:25;38.78;;;20.80;;
69754;SDS011;57023;52.218;5.158;2023-02-20T03:30:34;44.90;;;18.17;;
69754;SDS011;57023;52.218;5.158;2023-02-20T03:33:12;32.90;;;17.98;;
69754;SDS011;57023;52.218;5.158;2023-02-20T03:35:59;38.10;;;19.50;;
69754;SDS011;57023;52.218;5.158;2023-02-20T03:38:46;41.17;;;19.05;;
69754;SDS011;57023;52.218;5.158;2023-02-20T03:41:33;41.17;;;18.58;;
69754;SDS011;57023;52.218;5.158;2023-02-20T03:44:18;38.63;;;19.50;;
69754;SDS011;57023;52.218;5.158;2023-02-20T03:46:45;44.55;;;21.20;;
69754;SDS011;57023;52.218;5.158;2023-02-20T03:49:13;36.72;;;17.40;;
69754;SDS011;57023;52.218;5.158;2023-02-20T03:51:41;32.08;;;16.15;;
69754;SDS011;57023;52.218;5.158;2023-02-20T03:54:07;35.40;;;17.38;;
69754;SDS011;57023;52.218;5.158;2023-02-20T03:56:43;34.08;;;13.98;;
69754;SDS011;57023;52.218;5.158;2023-02-20T04:01:37;31.98;;;18.45;;
69754;SDS011;57023;52.218;5.158;2023-02-20T04:04:03;41.97;;;19.92;;
69754;SDS011;57023;52.218;5.158;2023-02-20T04:06:30;29.58;;;15.82;;
69754;SDS011;57023;52.218;5.158;2023-02-20T04:09:04;36.70;;;18.60;;
69754;SDS011;57023;52.218;5.158;2023-02-20T04:14:03;30.83;;;15.70;;
69754;SDS011;57023;52.218;5.158;2023-02-20T04:16:29;28.92;;;15.85;;
69754;SDS011;57023;52.218;5.158;2023-02-20T04:19:01;33.13;;;15.30;;
69754;SDS011;57023;52.218;5.158;2023-02-20T04:21:29;33.53;;;16.75;;
69754;SDS011;57023;52.218;5.158;2023-02-20T04:24:08;27.50;;;14.18;;
69754;SDS011;57023;52.218;5.158;2023-02-20T04:26:36;26.70;;;11.90;;
69754;SDS011;57023;52.218;5.158;2023-02-20T04:29:02;35.85;;;17.00;;
69754;SDS011;57023;52.218;5.158;2023-02-20T04:31:28;22.23;;;11.65;;
69754;SDS011;57023;52.218;5.158;2023-02-20T04:33:54;19.70;;;11.80;;
69754;SDS011;57023;52.218;5.158;2023-02-20T04:36:19;25.23;;;13.57;;
69754;SDS011;57023;52.218;5.158;2023-02-20T04:38:45;26.67;;;12.25;;
69754;SDS011;57023;52.218;5.158;2023-02-20T04:41:10;31.13;;;12.30;;
69754;SDS011;57023;52.218;5.158;2023-02-20T04:43:35;22.30;;;12.05;;
69754;SDS011;57023;52.218;5.158;2023-02-20T04:46:01;28.70;;;11.20;;
69754;SDS011;57023;52.218;5.158;2023-02-20T04:48:26;20.58;;;10.70;;
69754;SDS011;57023;52.218;5.158;2023-02-20T04:50:51;20.15;;;9.40;;
69754;SDS011;57023;52.218;5.158;2023-02-20T04:53:17;26.40;;;12.82;;
69754;SDS011;57023;52.218;5.158;2023-02-20T04:55:43;20.70;;;8.80;;
69754;SDS011;57023;52.218;5.158;2023-02-20T04:58:08;30.30;;;13.48;;
69754;SDS011;57023;52.218;5.158;2023-02-20T05:00:33;30.10;;;12.95;;
69754;SDS011;57023;52.218;5.158;2023-02-20T05:02:58;18.15;;;9.00;;
69754;SDS011;57023;52.218;5.158;2023-02-20T05:05:25;27.38;;;10.77;;
69754;SDS011;57023;52.218;5.158;2023-02-20T05:07:53;18.60;;;8.88;;
69754;SDS011;57023;52.218;5.158;2023-02-20T05:10:22;22.45;;;10.27;;
69754;SDS011;57023;52.218;5.158;2023-02-20T05:12:48;22.27;;;11.13;;
69754;SDS011;57023;52.218;5.158;2023-02-20T05:15:14;19.98;;;10.18;;
69754;SDS011;57023;52.218;5.158;2023-02-20T05:17:39;32.92;;;13.60;;
69754;SDS011;57023;52.218;5.158;2023-02-20T05:20:05;27.27;;;10.98;;
69754;SDS011;57023;52.218;5.158;2023-02-20T05:22:31;23.25;;;9.65;;
69754;SDS011;57023;52.218;5.158;2023-02-20T05:24:56;27.70;;;11.20;;
69754;SDS011;57023;52.218;5.158;2023-02-20T05:27:22;27.55;;;12.30;;
69754;SDS011;57023;52.218;5.158;2023-02-20T05:29:52;26.67;;;11.35;;
69754;SDS011;57023;52.218;5.158;2023-02-20T05:32:19;31.63;;;12.10;;
69754;SDS011;57023;52.218;5.158;2023-02-20T05:34:45;27.33;;;12.03;;
69754;SDS011;57023;52.218;5.158;2023-02-20T05:37:12;24.08;;;12.52;;
69754;SDS011;57023;52.218;5.158;2023-02-20T05:39:38;25.45;;;10.02;;
69754;SDS011;57023;52.218;5.158;2023-02-20T05:42:04;21.92;;;10.02;;
69754;SDS011;57023;52.218;5.158;2023-02-20T05:44:30;23.08;;;11.30;;
69754;SDS011;57023;52.218;5.158;2023-02-20T05:46:55;32.97;;;13.13;;
69754;SDS011;57023;52.218;5.158;2023-02-20T05:49:21;29.25;;;12.73;;
69754;SDS011;57023;52.218;5.158;2023-02-20T05:51:46;27.85;;;12.63;;
69754;SDS011;57023;52.218;5.158;2023-02-20T05:56:40;25.75;;;11.55;;
69754;SDS011;57023;52.218;5.158;2023-02-20T05:59:06;22.35;;;9.48;;
69754;SDS011;57023;52.218;5.158;2023-02-20T06:01:32;20.35;;;9.63;;
69754;SDS011;57023;52.218;5.158;2023-02-20T06:03:57;23.63;;;11.18;;
69754;SDS011;57023;52.218;5.158;2023-02-20T06:06:22;21.52;;;9.40;;
69754;SDS011;57023;52.218;5.158;2023-02-20T06:08:48;25.23;;;10.45;;
69754;SDS011;57023;52.218;5.158;2023-02-20T06:11:14;15.40;;;7.75;;
69754;SDS011;57023;52.218;5.158;2023-02-20T06:13:43;25.58;;;11.63;;
69754;SDS011;57023;52.218;5.158;2023-02-20T06:16:08;15.75;;;8.88;;
69754;SDS011;57023;52.218;5.158;2023-02-20T06:18:38;28.85;;;11.98;;
69754;SDS011;57023;52.218;5.158;2023-02-20T06:21:08;23.02;;;12.07;;
69754;SDS011;57023;52.218;5.158;2023-02-20T06:23:34;22.50;;;10.15;;
69754;SDS011;57023;52.218;5.158;2023-02-20T06:26:03;23.80;;;9.60;;
69754;SDS011;57023;52.218;5.158;2023-02-20T06:28:29;24.35;;;11.02;;
69754;SDS011;57023;52.218;5.158;2023-02-20T06:30:54;28.52;;;12.70;;
69754;SDS011;57023;52.218;5.158;2023-02-20T06:33:20;21.75;;;11.07;;
69754;SDS011;57023;52.218;5.158;2023-02-20T06:35:45;17.55;;;9.57;;
69754;SDS011;57023;52.218;5.158;2023-02-20T06:38:10;26.10;;;12.00;;
69754;SDS011;57023;52.218;5.158;2023-02-20T06:40:36;18.77;;;9.52;;
69754;SDS011;57023;52.218;5.158;2023-02-20T06:43:02;29.08;;;12.32;;
69754;SDS011;57023;52.218;5.158;2023-02-20T06:45:27;22.00;;;11.20;;
69754;SDS011;57023;52.218;5.158;2023-02-20T06:47:53;21.08;;;9.60;;
69754;SDS011;57023;52.218;5.158;2023-02-20T06:50:18;22.25;;;9.50;;
69754;SDS011;57023;52.218;5.158;2023-02-20T06:52:43;21.15;;;11.10;;
69754;SDS011;57023;52.218;5.158;2023-02-20T06:55:09;18.40;;;8.80;;
69754;SDS011;57023;52.218;5.158;2023-02-20T06:57:34;26.80;;;12.32;;
69754;SDS011;57023;52.218;5.158;2023-02-20T06:59:59;18.67;;;9.65;;
69754;SDS011;57023;52.218;5.158;2023-02-20T07:02:25;22.23;;;9.80;;
69754;SDS011;57023;52.218;5.158;2023-02-20T07:04:50;21.45;;;9.25;;
69754;SDS011;57023;52.218;5.158;2023-02-20T07:07:15;22.58;;;10.43;;
69754;SDS011;57023;52.218;5.158;2023-02-20T07:09:40;26.77;;;11.30;;
69754;SDS011;57023;52.218;5.158;2023-02-20T07:12:06;20.70;;;8.90;;
69754;SDS011;57023;52.218;5.158;2023-02-20T07:14:31;14.95;;;8.60;;
69754;SDS011;57023;52.218;5.158;2023-02-20T07:16:57;18.70;;;10.25;;
69754;SDS011;57023;52.218;5.158;2023-02-20T07:19:22;26.45;;;11.70;;
69754;SDS011;57023;52.218;5.158;2023-02-20T07:21:47;23.15;;;10.57;;
69754;SDS011;57023;52.218;5.158;2023-02-20T07:24:13;21.30;;;9.45;;
69754;SDS011;57023;52.218;5.158;2023-02-20T07:26:38;20.40;;;9.43;;
69754;SDS011;57023;52.218;5.158;2023-02-20T07:29:04;20.52;;;8.20;;
69754;SDS011;57023;52.218;5.158;2023-02-20T07:31:30;22.88;;;9.25;;
69754;SDS011;57023;52.218;5.158;2023-02-20T07:33:56;28.10;;;10.30;;
69754;SDS011;57023;52.218;5.158;2023-02-20T07:36:22;17.95;;;10.00;;
69754;SDS011;57023;52.218;5.158;2023-02-20T07:38:54;21.60;;;8.48;;
69754;SDS011;57023;52.218;5.158;2023-02-20T07:41:21;17.90;;;9.20;;
69754;SDS011;57023;52.218;5.158;2023-02-20T07:43:46;22.35;;;10.00;;
69754;SDS011;57023;52.218;5.158;2023-02-20T07:46:12;26.55;;;11.02;;
69754;SDS011;57023;52.218;5.158;2023-02-20T07:48:37;16.33;;;8.00;;
69754;SDS011;57023;52.218;5.158;2023-02-20T07:51:02;21.58;;;10.18;;
69754;SDS011;57023;52.218;5.158;2023-02-20T07:53:28;20.05;;;8.30;;
69754;SDS011;57023;52.218;5.158;2023-02-20T07:55:53;23.08;;;10.25;;
69754;SDS011;57023;52.218;5.158;2023-02-20T07:58:18;16.98;;;8.55;;
69754;SDS011;57023;52.218;5.158;2023-02-20T08:00:44;21.10;;;8.38;;
69754;SDS011;57023;52.218;5.158;2023-02-20T08:03:09;23.15;;;9.63;;
69754;SDS011;57023;52.218;5.158;2023-02-20T08:05:35;21.50;;;9.02;;
69754;SDS011;57023;52.218;5.158;2023-02-20T08:08:00;20.55;;;8.73;;
69754;SDS011;57023;52.218;5.158;2023-02-20T08:10:26;16.75;;;7.35;;
69754;SDS011;57023;52.218;5.158;2023-02-20T08:12:52;20.30;;;8.43;;
69754;SDS011;57023;52.218;5.158;2023-02-20T08:15:18;23.13;;;9.82;;
69754;SDS011;57023;52.218;5.158;2023-02-20T08:17:44;16.85;;;8.63;;
69754;SDS011;57023;52.218;5.158;2023-02-20T08:20:09;19.05;;;10.07;;
69754;SDS011;57023;52.218;5.158;2023-02-20T08:22:35;23.10;;;10.38;;
69754;SDS011;57023;52.218;5.158;2023-02-20T08:25:00;21.42;;;9.73;;
69754;SDS011;57023;52.218;5.158;2023-02-20T08:27:28;17.00;;;9.25;;
69754;SDS011;57023;52.218;5.158;2023-02-20T08:29:53;19.25;;;8.98;;
69754;SDS011;57023;52.218;5.158;2023-02-20T08:32:18;22.13;;;9.70;;
69754;SDS011;57023;52.218;5.158;2023-02-20T08:34:43;16.27;;;7.38;;
69754;SDS011;57023;52.218;5.158;2023-02-20T08:37:09;26.50;;;10.52;;
69754;SDS011;57023;52.218;5.158;2023-02-20T08:39:35;23.65;;;9.38;;
69754;SDS011;57023;52.218;5.158;2023-02-20T08:42:01;29.58;;;10.18;;
69754;SDS011;57023;52.218;5.158;2023-02-20T08:44:26;24.58;;;10.82;;
69754;SDS011;57023;52.218;5.158;2023-02-20T08:46:51;21.92;;;10.77;;
69754;SDS011;57023;52.218;5.158;2023-02-20T08:49:17;18.55;;;9.10;;
69754;SDS011;57023;52.218;5.158;2023-02-20T08:51:46;22.05;;;9.30;;
69754;SDS011;57023;52.218;5.158;2023-02-20T08:54:12;19.50;;;8.95;;
69754;SDS011;57023;52.218;5.158;2023-02-20T08:56:40;19.45;;;9.65;;
69754;SDS011;57023;52.218;5.158;2023-02-20T08:59:06;18.13;;;8.95;;
69754;SDS011;57023;52.218;5.158;2023-02-20T09:01:31;24.98;;;10.80;;
69754;SDS011;57023;52.218;5.158;2023-02-20T09:03:56;23.73;;;12.00;;
69754;SDS011;57023;52.218;5.158;2023-02-20T09:06:22;20.52;;;11.30;;
69754;SDS011;57023;52.218;5.158;2023-02-20T09:08:49;28.50;;;12.50;;
69754;SDS011;57023;52.218;5.158;2023-02-20T09:11:15;24.52;;;11.63;;
69754;SDS011;57023;52.218;5.158;2023-02-20T09:13:41;23.98;;;11.05;;
69754;SDS011;57023;52.218;5.158;2023-02-20T09:16:07;22.75;;;12.88;;
69754;SDS011;57023;52.218;5.158;2023-02-20T09:18:33;25.67;;;11.73;;
69754;SDS011;57023;52.218;5.158;2023-02-20T09:20:58;16.17;;;9.18;;
69754;SDS011;57023;52.218;5.158;2023-02-20T09:23:23;27.05;;;12.77;;
69754;SDS011;57023;52.218;5.158;2023-02-20T09:25:50;21.52;;;11.27;;
69754;SDS011;57023;52.218;5.158;2023-02-20T09:28:16;19.42;;;10.88;;
69754;SDS011;57023;52.218;5.158;2023-02-20T09:30:42;22.42;;;11.60;;
69754;SDS011;57023;52.218;5.158;2023-02-20T09:33:07;21.60;;;11.48;;
69754;SDS011;57023;52.218;5.158;2023-02-20T09:35:33;18.63;;;11.55;;
69754;SDS011;57023;52.218;5.158;2023-02-20T09:37:59;22.88;;;11.80;;
69754;SDS011;57023;52.218;5.158;2023-02-20T09:40:26;21.38;;;11.45;;
69754;SDS011;57023;52.218;5.158;2023-02-20T09:43:03;15.18;;;9.65;;
69754;SDS011;57023;52.218;5.158;2023-02-20T09:45:31;17.52;;;10.75;;
69754;SDS011;57023;52.218;5.158;2023-02-20T09:50:46;13.70;;;8.07;;
69754;SDS011;57023;52.218;5.158;2023-02-20T09:53:20;14.45;;;8.88;;
69754;SDS011;57023;52.218;5.158;2023-02-20T09:55:49;16.20;;;10.20;;
69754;SDS011;57023;52.218;5.158;2023-02-20T09:58:19;13.75;;;8.05;;
69754;SDS011;57023;52.218;5.158;2023-02-20T10:00:47;15.30;;;9.40;;
69754;SDS011;57023;52.218;5.158;2023-02-20T10:03:19;14.17;;;8.97;;
69754;SDS011;57023;52.218;5.158;2023-02-20T10:05:47;15.45;;;8.23;;
69754;SDS011;57023;52.218;5.158;2023-02-20T10:08:14;13.57;;;7.38;;
69754;SDS011;57023;52.218;5.158;2023-02-20T10:10:42;14.07;;;9.00;;
69754;SDS011;57023;52.218;5.158;2023-02-20T10:13:15;15.60;;;8.20;;
69754;SDS011;57023;52.218;5.158;2023-02-20T10:18:33;16.10;;;7.72;;
69754;SDS011;57023;52.218;5.158;2023-02-20T10:23:47;16.05;;;7.43;;
69754;SDS011;57023;52.218;5.158;2023-02-20T10:26:28;15.75;;;8.13;;
69754;SDS011;57023;52.218;5.158;2023-02-20T10:28:58;16.20;;;8.35;;
69754;SDS011;57023;52.218;5.158;2023-02-20T10:31:35;15.25;;;9.23;;
69754;SDS011;57023;52.218;5.158;2023-02-20T10:34:08;12.00;;;7.43;;
69754;SDS011;57023;52.218;5.158;2023-02-20T10:36:51;10.85;;;6.45;;
69754;SDS011;57023;52.218;5.158;2023-02-20T10:39:19;14.98;;;8.77;;
69754;SDS011;57023;52.218;5.158;2023-02-20T10:41:48;12.35;;;7.28;;
69754;SDS011;57023;52.218;5.158;2023-02-20T10:46:55;12.18;;;7.82;;
69754;SDS011;57023;52.218;5.158;2023-02-20T10:49:26;11.85;;;6.75;;
69754;SDS011;57023;52.218;5.158;2023-02-20T10:51:58;12.20;;;8.48;;
69754;SDS011;57023;52.218;5.158;2023-02-20T10:54:42;12.13;;;8.05;;
69754;SDS011;57023;52.218;5.158;2023-02-20T11:00:04;13.30;;;7.45;;
69754;SDS011;57023;52.218;5.158;2023-02-20T11:02:35;12.20;;;6.97;;
69754;SDS011;57023;52.218;5.158;2023-02-20T11:05:09;18.02;;;8.07;;
69754;SDS011;57023;52.218;5.158;2023-02-20T11:07:37;11.98;;;8.68;;
69754;SDS011;57023;52.218;5.158;2023-02-20T11:10:03;15.52;;;8.43;;
69754;SDS011;57023;52.218;5.158;2023-02-20T11:12:31;13.10;;;7.40;;
69754;SDS011;57023;52.218;5.158;2023-02-20T11:15:00;14.35;;;7.30;;
69754;SDS011;57023;52.218;5.158;2023-02-20T11:17:30;15.50;;;9.68;;
69754;SDS011;57023;52.218;5.158;2023-02-20T11:19:57;16.17;;;8.70;;
69754;SDS011;57023;52.218;5.158;2023-02-20T11:22:37;12.93;;;8.20;;
69754;SDS011;57023;52.218;5.158;2023-02-20T11:27:45;17.35;;;9.07;;
69754;SDS011;57023;52.218;5.158;2023-02-20T11:33:41;12.40;;;8.40;;
69754;SDS011;57023;52.218;5.158;2023-02-20T11:35:50;11.70;;;7.95;;
69754;SDS011;57023;52.218;5.158;2023-02-20T11:40:59;13.80;;;7.75;;
69754;SDS011;57023;52.218;5.158;2023-02-20T11:46:14;13.52;;;7.47;;
69754;SDS011;57023;52.218;5.158;2023-02-20T11:48:56;13.73;;;7.65;;
69754;SDS011;57023;52.218;5.158;2023-02-20T11:56:51;11.68;;;7.07;;
69754;SDS011;57023;52.218;5.158;2023-02-20T11:59:37;13.05;;;7.70;;
69754;SDS011;57023;52.218;5.158;2023-02-20T12:05:01;13.60;;;7.63;;
69754;SDS011;57023;52.218;5.158;2023-02-20T12:10:24;11.70;;;6.70;;
69754;SDS011;57023;52.218;5.158;2023-02-20T12:12:53;11.90;;;6.25;;
69754;SDS011;57023;52.218;5.158;2023-02-20T12:15:20;11.95;;;7.43;;
69754;SDS011;57023;52.218;5.158;2023-02-20T12:18:07;15.15;;;7.38;;
69754;SDS011;57023;52.218;5.158;2023-02-20T12:20:47;9.15;;;6.57;;
69754;SDS011;57023;52.218;5.158;2023-02-20T12:26:07;13.52;;;7.68;;
69754;SDS011;57023;52.218;5.158;2023-02-20T12:28:52;11.88;;;7.18;;
69754;SDS011;57023;52.218;5.158;2023-02-20T12:31:28;9.20;;;6.88;;
69754;SDS011;57023;52.218;5.158;2023-02-20T12:57:41;11.25;;;6.00;;
69754;SDS011;57023;52.218;5.158;2023-02-20T13:02:54;13.57;;;6.20;;
69754;SDS011;57023;52.218;5.158;2023-02-20T13:05:23;12.00;;;6.88;;
69754;SDS011;57023;52.218;5.158;2023-02-20T13:07:59;11.05;;;6.82;;
69754;SDS011;57023;52.218;5.158;2023-02-20T13:10:34;13.13;;;6.10;;
69754;SDS011;57023;52.218;5.158;2023-02-20T13:13:09;13.05;;;6.63;;
69754;SDS011;57023;52.218;5.158;2023-02-20T13:18:47;9.73;;;5.43;;
69754;SDS011;57023;52.218;5.158;2023-02-20T13:21:24;13.02;;;6.53;;
69754;SDS011;57023;52.218;5.158;2023-02-20T13:23:50;11.10;;;6.63;;
69754;SDS011;57023;52.218;5.158;2023-02-20T13:29:19;11.18;;;6.28;;
69754;SDS011;57023;52.218;5.158;2023-02-20T13:31:48;10.52;;;6.13;;
69754;SDS011;57023;52.218;5.158;2023-02-20T13:36:43;12.73;;;7.00;;
69754;SDS011;57023;52.218;5.158;2023-02-20T13:46:56;14.00;;;6.22;;
69754;SDS011;57023;52.218;5.158;2023-02-20T13:50:26;12.40;;;6.75;;
69754;SDS011;57023;52.218;5.158;2023-02-20T14:08:34;14.55;;;8.45;;
69754;SDS011;57023;52.218;5.158;2023-02-20T14:11:33;17.63;;;8.98;;
69754;SDS011;57023;52.218;5.158;2023-02-20T14:13:58;13.60;;;9.02;;
69754;SDS011;57023;52.218;5.158;2023-02-20T14:16:31;11.60;;;7.78;;
69754;SDS011;57023;52.218;5.158;2023-02-20T14:19:04;14.18;;;8.27;;
69754;SDS011;57023;52.218;5.158;2023-02-20T14:21:32;15.27;;;7.68;;
69754;SDS011;57023;52.218;5.158;2023-02-20T14:24:09;14.50;;;7.30;;
69754;SDS011;57023;52.218;5.158;2023-02-20T14:26:42;13.65;;;7.03;;
69754;SDS011;57023;52.218;5.158;2023-02-20T14:29:18;14.20;;;7.80;;
69754;SDS011;57023;52.218;5.158;2023-02-20T14:31:45;15.07;;;6.72;;
69754;SDS011;57023;52.218;5.158;2023-02-20T14:34:32;12.75;;;6.43;;
69754;SDS011;57023;52.218;5.158;2023-02-20T14:40:32;14.02;;;7.03;;
69754;SDS011;57023;52.218;5.158;2023-02-20T14:43:08;14.00;;;7.25;;
69754;SDS011;57023;52.218;5.158;2023-02-20T14:45:38;11.90;;;6.97;;
69754;SDS011;57023;52.218;5.158;2023-02-20T14:48:04;18.15;;;7.05;;
69754;SDS011;57023;52.218;5.158;2023-02-20T14:50:30;14.05;;;7.93;;
69754;SDS011;57023;52.218;5.158;2023-02-20T14:55:36;13.95;;;8.32;;
69754;SDS011;57023;52.218;5.158;2023-02-20T14:58:10;14.15;;;8.48;;
69754;SDS011;57023;52.218;5.158;2023-02-20T15:00:38;10.48;;;7.38;;
69754;SDS011;57023;52.218;5.158;2023-02-20T15:03:17;10.40;;;6.10;;
69754;SDS011;57023;52.218;5.158;2023-02-20T15:05:47;11.15;;;8.13;;
69754;SDS011;57023;52.218;5.158;2023-02-20T15:08:20;11.23;;;6.13;;
69754;SDS011;57023;52.218;5.158;2023-02-20T15:10:50;13.25;;;7.75;;
69754;SDS011;57023;52.218;5.158;2023-02-20T15:13:21;15.32;;;8.43;;
69754;SDS011;57023;52.218;5.158;2023-02-20T15:18:43;12.55;;;7.10;;
69754;SDS011;57023;52.218;5.158;2023-02-20T15:21:13;10.25;;;6.90;;
69754;SDS011;57023;52.218;5.158;2023-02-20T15:23:44;12.88;;;7.88;;
69754;SDS011;57023;52.218;5.158;2023-02-20T15:31:58;16.48;;;7.75;;
69754;SDS011;57023;52.218;5.158;2023-02-20T15:34:37;12.88;;;8.15;;
69754;SDS011;57023;52.218;5.158;2023-02-20T15:37:15;10.90;;;7.10;;
69754;SDS011;57023;52.218;5.158;2023-02-20T15:39:43;11.88;;;6.85;;
69754;SDS011;57023;52.218;5.158;2023-02-20T15:42:11;13.55;;;6.10;;
69754;SDS011;57023;52.218;5.158;2023-02-20T15:44:36;13.18;;;8.00;;
69754;SDS011;57023;52.218;5.158;2023-02-20T15:47:02;13.15;;;7.15;;
69754;SDS011;57023;52.218;5.158;2023-02-20T15:49:27;16.08;;;8.57;;
69754;SDS011;57023;52.218;5.158;2023-02-20T15:51:53;12.45;;;6.63;;
69754;SDS011;57023;52.218;5.158;2023-02-20T15:54:18;12.77;;;7.13;;
69754;SDS011;57023;52.218;5.158;2023-02-20T15:56:43;13.15;;;7.78;;
69754;SDS011;57023;52.218;5.158;2023-02-20T15:59:11;14.80;;;7.75;;
69754;SDS011;57023;52.218;5.158;2023-02-20T16:01:36;11.80;;;7.40;;
69754;SDS011;57023;52.218;5.158;2023-02-20T16:04:02;12.75;;;7.57;;
69754;SDS011;57023;52.218;5.158;2023-02-20T16:06:27;15.38;;;7.68;;
69754;SDS011;57023;52.218;5.158;2023-02-20T16:08:53;11.40;;;6.50;;
69754;SDS011;57023;52.218;5.158;2023-02-20T16:11:19;15.63;;;8.23;;
69754;SDS011;57023;52.218;5.158;2023-02-20T16:18:59;13.70;;;8.13;;
69754;SDS011;57023;52.218;5.158;2023-02-20T16:21:25;12.47;;;8.00;;
69754;SDS011;57023;52.218;5.158;2023-02-20T16:23:51;19.13;;;8.68;;
69754;SDS011;57023;52.218;5.158;2023-02-20T16:26:17;14.77;;;8.60;;
69754;SDS011;57023;52.218;5.158;2023-02-20T16:28:49;20.13;;;9.30;;
69754;SDS011;57023;52.218;5.158;2023-02-20T16:31:19;14.98;;;8.55;;
69754;SDS011;57023;52.218;5.158;2023-02-20T16:33:44;16.17;;;8.80;;
69754;SDS011;57023;52.218;5.158;2023-02-20T16:36:10;17.90;;;9.02;;
69754;SDS011;57023;52.218;5.158;2023-02-20T16:38:35;21.33;;;9.80;;
69754;SDS011;57023;52.218;5.158;2023-02-20T16:41:01;18.77;;;9.73;;
69754;SDS011;57023;52.218;5.158;2023-02-20T16:43:27;18.25;;;8.93;;
69754;SDS011;57023;52.218;5.158;2023-02-20T16:45:52;18.17;;;8.35;;
69754;SDS011;57023;52.218;5.158;2023-02-20T16:48:19;16.45;;;8.38;;
69754;SDS011;57023;52.218;5.158;2023-02-20T16:50:47;13.35;;;7.97;;
69754;SDS011;57023;52.218;5.158;2023-02-20T16:53:14;13.80;;;7.85;;
69754;SDS011;57023;52.218;5.158;2023-02-20T16:55:39;17.75;;;8.50;;
69754;SDS011;57023;52.218;5.158;2023-02-20T16:58:09;15.63;;;7.95;;
69754;SDS011;57023;52.218;5.158;2023-02-20T17:00:36;13.93;;;7.95;;
69754;SDS011;57023;52.218;5.158;2023-02-20T17:03:06;17.70;;;8.43;;
69754;SDS011;57023;52.218;5.158;2023-02-20T17:05:33;14.30;;;8.13;;
69754;SDS011;57023;52.218;5.158;2023-02-20T17:07:59;14.60;;;8.40;;
69754;SDS011;57023;52.218;5.158;2023-02-20T17:10:25;14.77;;;8.65;;
69754;SDS011;57023;52.218;5.158;2023-02-20T17:12:52;14.25;;;8.35;;
69754;SDS011;57023;52.218;5.158;2023-02-20T17:15:19;16.40;;;8.32;;
69754;SDS011;57023;52.218;5.158;2023-02-20T17:17:45;12.02;;;7.10;;
69754;SDS011;57023;52.218;5.158;2023-02-20T17:20:14;17.40;;;8.75;;
69754;SDS011;57023;52.218;5.158;2023-02-20T17:22:40;14.18;;;8.93;;
69754;SDS011;57023;52.218;5.158;2023-02-20T17:25:07;15.95;;;8.80;;
69754;SDS011;57023;52.218;5.158;2023-02-20T17:27:34;16.10;;;9.05;;